Time;durP1;ratioP1;P1;durP2;ratioP2;P2;SDS_P1;SDS_P2;PMS_P1;PMS_P2;Temp;Humidity;BMP_temperature;BMP_pressure;BME280_temperature;BME280_humidity;BME280_pressure;Samples;Min_cycle;Max_cycle;Signal;HPM_P1;HPM_P2
2022/03/12 00:01:08;;;;;;;40.20;12.50;;;;;;;-3.93;49.27;100933.92;103618;1300;24403;-28
2022/03/12 00:03:34;;;;;;;20.60;6.80;;;;;;;-3.94;49.53;100929.25;103632;1300;23868;-26
2022/03/12 00:06:00;;;;;;;32.00;11.90;;;;;;;-3.94;49.52;100931.70;103720;1300;24212;-29
2022/03/12 00:08:34;;;;;;;39.90;11.40;;;;;;;-3.98;49.83;100928.33;103745;1300;24259;-28
2022/03/12 00:11:01;;;;;;;53.00;14.40;;;;;;;-4.00;49.82;100925.61;103567;1300;24255;-26
2022/03/12 00:13:26;;;;;;;47.60;14.80;;;;;;;-4.03;50.01;100926.99;103642;1300;24221;-28
2022/03/12 00:15:52;;;;;;;43.60;14.10;;;;;;;-4.05;50.57;100929.20;103569;1302;24134;-30
2022/03/12 00:18:19;;;;;;;99.40;20.60;;;;;;;-4.09;51.12;100931.08;103669;1299;24256;-28
2022/03/12 00:20:47;;;;;;;77.80;18.70;;;;;;;-4.13;51.35;100926.92;103572;1300;24238;-28
2022/03/12 00:23:14;;;;;;;50.30;12.70;;;;;;;-4.16;51.66;100925.64;103673;1299;22587;-27
2022/03/12 00:25:41;;;;;;;64.40;12.80;;;;;;;-4.18;52.16;100926.93;103690;1300;24272;-25
2022/03/12 00:28:07;;;;;;;105.60;22.80;;;;;;;-4.23;52.60;100919.61;103695;1299;24217;-26
2022/03/12 00:30:35;;;;;;;51.70;10.90;;;;;;;-4.23;52.10;100917.86;103550;1302;24291;-27
2022/03/12 00:33:01;;;;;;;82.30;19.00;;;;;;;-4.26;52.24;100914.84;103568;1300;25852;-26
2022/03/12 00:35:27;;;;;;;62.90;15.00;;;;;;;-4.29;52.22;100914.46;103605;1300;24234;-25
2022/03/12 00:37:53;;;;;;;90.10;18.10;;;;;;;-4.30;52.21;100918.00;103683;1300;24328;-29
2022/03/12 00:40:20;;;;;;;75.70;17.00;;;;;;;-4.29;52.61;100917.60;103596;1299;24344;-27
2022/03/12 00:42:46;;;;;;;58.70;14.60;;;;;;;-4.33;52.69;100917.44;103619;1300;24262;-28
2022/03/12 00:45:12;;;;;;;65.40;13.80;;;;;;;-4.37;52.57;100912.33;103527;1300;22703;-30
2022/03/12 00:47:38;;;;;;;62.50;16.20;;;;;;;-4.40;52.72;100911.05;103461;1302;24240;-26
2022/03/12 00:50:05;;;;;;;82.80;17.50;;;;;;;-4.38;52.63;100908.02;103514;1300;22754;-30
2022/03/12 00:52:31;;;;;;;54.30;12.30;;;;;;;-4.38;52.33;100906.28;103548;1302;24403;-29
2022/03/12 00:54:57;;;;;;;41.10;12.50;;;;;;;-4.41;52.46;100902.37;103538;1302;24249;-27
2022/03/12 00:57:23;;;;;;;41.00;10.90;;;;;;;-4.41;52.82;100900.82;103516;1302;24211;-27
2022/03/12 00:59:48;;;;;;;76.70;18.70;;;;;;;-4.43;53.42;100904.72;103483;1302;24374;-30
2022/03/12 01:02:15;;;;;;;39.00;11.60;;;;;;;-4.43;53.47;100901.77;103484;1302;24305;-26
2022/03/12 01:04:41;;;;;;;25.90;8.70;;;;;;;-4.45;53.07;100900.80;103452;1302;24366;-25
2022/03/12 01:07:10;;;;;;;41.40;11.30;;;;;;;-4.43;53.35;100897.59;103578;1302;24403;-26
2022/03/12 01:09:36;;;;;;;35.50;8.80;;;;;;;-4.45;52.93;100897.81;103591;1302;22595;-28
2022/03/12 01:12:02;;;;;;;58.00;14.10;;;;;;;-4.47;53.09;100895.10;103576;1302;24362;-25
2022/03/12 01:14:29;;;;;;;56.20;12.70;;;;;;;-4.47;52.85;100895.11;103603;1300;24173;-29
2022/03/12 01:16:56;;;;;;;51.10;12.50;;;;;;;-4.50;53.16;100889.98;103526;1302;24386;-25
2022/03/12 01:19:22;;;;;;;39.50;10.60;;;;;;;-4.51;53.27;100890.73;103436;1302;24221;-28
2022/03/12 01:21:47;;;;;;;59.00;15.20;;;;;;;-4.54;53.09;100890.68;103577;1302;24441;-29
2022/03/12 01:24:13;;;;;;;61.80;15.60;;;;;;;-4.55;53.43;100893.50;103532;1302;24296;-29
2022/03/12 01:26:39;;;;;;;44.30;13.50;;;;;;;-4.57;53.24;100893.27;103549;1302;24195;-25
2022/03/12 01:29:07;;;;;;;50.50;14.60;;;;;;;-4.56;53.28;100895.48;103583;1300;24297;-25
2022/03/12 01:31:34;;;;;;;59.90;14.70;;;;;;;-4.56;53.38;100892.17;103504;1302;24399;-26
2022/03/12 01:34:00;;;;;;;69.70;14.90;;;;;;;-4.57;53.41;100889.91;103547;1302;22942;-29
2022/03/12 01:36:26;;;;;;;46.80;14.30;;;;;;;-4.56;53.32;100887.10;103509;1302;22705;-26
2022/03/12 01:38:53;;;;;;;64.50;14.90;;;;;;;-4.58;53.02;100884.39;103553;1299;24300;-27
2022/03/12 01:41:21;;;;;;;31.50;9.70;;;;;;;-4.58;52.99;100879.84;103527;1302;24292;-28
2022/03/12 01:43:47;;;;;;;22.60;6.80;;;;;;;-4.60;53.10;100875.40;103536;1299;24211;-27
2022/03/12 01:46:13;;;;;;;14.70;5.60;;;;;;;-4.60;53.14;100872.06;103562;1301;24296;-28
2022/03/12 01:48:45;;;;;;;15.80;6.60;;;;;;;-4.60;52.99;100868.38;103545;1300;23022;-25
2022/03/12 01:51:11;;;;;;;35.70;11.50;;;;;;;-4.60;52.97;100869.08;103547;1302;24278;-25
2022/03/12 01:53:36;;;;;;;51.20;9.70;;;;;;;-4.59;53.08;100869.05;103605;1299;24407;-30
2022/03/12 01:56:02;;;;;;;21.30;5.80;;;;;;;-4.57;52.64;100870.52;103560;1300;22515;-29
2022/03/12 01:58:28;;;;;;;26.10;7.70;;;;;;;-4.57;52.84;100871.20;103740;1299;24324;-27
2022/03/12 02:00:57;;;;;;;34.00;11.50;;;;;;;-4.55;52.30;100870.79;103665;1299;24301;-26
2022/03/12 02:03:29;;;;;;;25.70;8.80;;;;;;;-4.53;52.14;100872.79;103587;1300;22859;-26
2022/03/12 02:05:55;;;;;;;23.80;6.10;;;;;;;-4.53;52.16;100875.27;103564;1300;24221;-26
2022/03/12 02:08:21;;;;;;;23.50;5.60;;;;;;;-4.55;52.30;100874.63;103658;1300;24234;-27
2022/03/12 02:10:48;;;;;;;13.20;5.10;;;;;;;-4.52;51.88;100875.57;103572;1300;24240;-29
2022/03/12 02:13:14;;;;;;;10.80;4.00;;;;;;;-4.53;52.02;100874.02;103611;1300;24237;-26
2022/03/12 02:15:39;;;;;;;14.00;4.90;;;;;;;-4.52;52.19;100869.09;103644;1300;24372;-29
2022/03/12 02:18:05;;;;;;;18.30;5.20;;;;;;;-4.53;51.62;100868.41;103516;1300;24305;-28
2022/03/12 02:20:31;;;;;;;12.00;5.00;;;;;;;-4.53;51.18;100867.74;103623;1300;22776;-29
2022/03/12 02:22:59;;;;;;;13.00;4.80;;;;;;;-4.56;51.34;100865.05;103571;1300;24319;-25
2022/03/12 02:25:29;;;;;;;17.60;5.10;;;;;;;-4.60;51.65;100868.37;103608;1300;24298;-28
2022/03/12 02:27:56;;;;;;;8.70;3.60;;;;;;;-4.63;51.28;100867.65;103605;1300;22725;-25
2022/03/12 02:30:23;;;;;;;13.70;3.80;;;;;;;-4.62;50.87;100870.23;103568;1300;24304;-30
2022/03/12 02:32:51;;;;;;;18.30;5.40;;;;;;;-4.62;51.71;100867.43;103645;1299;22512;-28
2022/03/12 02:35:19;;;;;;;18.70;6.30;;;;;;;-4.65;51.66;100866.16;103586;1302;24302;-25
2022/03/12 02:37:47;;;;;;;8.90;4.10;;;;;;;-4.69;51.61;100863.14;103584;1300;24304;-25
2022/03/12 02:40:12;;;;;;;11.50;4.90;;;;;;;-4.73;51.19;100860.86;103621;1299;24226;-27
2022/03/12 02:42:39;;;;;;;10.90;3.10;;;;;;;-4.75;51.36;100857.45;103657;1299;24240;-28
2022/03/12 02:45:07;;;;;;;14.10;4.60;;;;;;;-4.74;52.02;100857.77;103631;1299;24228;-28
2022/03/12 02:47:34;;;;;;;8.90;4.50;;;;;;;-4.71;51.69;100860.60;103715;1299;24346;-29
2022/03/12 02:50:03;;;;;;;21.40;4.80;;;;;;;-4.71;51.48;100860.27;103619;1299;24086;-28
2022/03/12 02:52:30;;;;;;;13.20;4.50;;;;;;;-4.72;51.32;100860.30;103557;1300;25895;-29
2022/03/12 02:54:57;;;;;;;14.60;5.60;;;;;;;-4.73;51.67;100861.23;103618;1300;24301;-25
2022/03/12 02:57:24;;;;;;;13.20;5.30;;;;;;;-4.72;51.21;100863.64;103527;1300;25036;-25
2022/03/12 02:59:52;;;;;;;8.80;3.70;;;;;;;-4.71;51.39;100868.29;103664;1300;22505;-26
2022/03/12 03:02:25;;;;;;;12.10;3.80;;;;;;;-4.67;51.32;100867.81;103630;1300;24018;-29
2022/03/12 03:04:51;;;;;;;13.30;4.10;;;;;;;-4.67;51.20;100872.17;103507;1300;22718;-26
2022/03/12 03:07:17;;;;;;;10.20;4.20;;;;;;;-4.69;50.94;100873.98;103640;1299;22509;-29
2022/03/12 03:09:43;;;;;;;6.70;2.80;;;;;;;-4.66;50.72;100871.11;103540;1300;24222;-28
2022/03/12 03:12:10;;;;;;;7.20;3.10;;;;;;;-4.67;50.99;100868.34;103547;1300;24260;-25
2022/03/12 03:14:42;;;;;;;14.90;6.20;;;;;;;-4.67;51.41;100867.29;103713;1299;24274;-26
2022/03/12 03:17:11;;;;;;;18.20;5.30;;;;;;;-4.68;50.93;100867.46;103769;1300;23916;-26
2022/03/12 03:19:38;;;;;;;12.20;4.10;;;;;;;-4.68;51.11;100866.98;103704;1300;24237;-27
2022/03/12 03:22:04;;;;;;;13.50;5.00;;;;;;;-4.68;50.90;100867.15;103704;1300;24367;-26
2022/03/12 03:24:30;;;;;;;11.70;4.80;;;;;;;-4.64;50.80;100864.70;103833;1300;24256;-25
2022/03/12 03:26:57;;;;;;;23.30;4.80;;;;;;;-4.60;50.86;100860.15;103543;1300;24224;-25
2022/03/12 03:29:25;;;;;;;11.40;4.30;;;;;;;-4.55;50.67;100857.17;103575;1300;24259;-26
2022/03/12 03:31:51;;;;;;;16.20;6.20;;;;;;;-4.54;51.02;100860.79;103644;1300;24208;-28
2022/03/12 03:34:17;;;;;;;19.40;5.60;;;;;;;-4.53;50.94;100856.55;103571;1300;24222;-25
2022/03/12 03:36:43;;;;;;;13.10;4.30;;;;;;;-4.50;50.50;100857.84;103670;1300;24243;-25
2022/03/12 03:39:09;;;;;;;25.00;7.10;;;;;;;-4.49;50.78;100860.22;103619;1300;24365;-28
2022/03/12 03:41:35;;;;;;;15.70;4.40;;;;;;;-4.49;50.56;100858.99;103574;1300;24275;-28
2022/03/12 03:44:00;;;;;;;13.50;4.70;;;;;;;-4.49;50.77;100857.22;103574;1300;25078;-29
2022/03/12 03:46:26;;;;;;;11.10;3.60;;;;;;;-4.50;50.60;100852.94;103524;1302;24217;-29
2022/03/12 03:48:53;;;;;;;13.40;5.60;;;;;;;-4.52;50.54;100851.63;103535;1300;24220;-29
2022/03/12 03:51:19;;;;;;;20.80;6.20;;;;;;;-4.51;50.69;100852.27;103605;1300;24210;-26
2022/03/12 03:53:45;;;;;;;10.60;4.10;;;;;;;-4.51;50.69;100848.92;103597;1300;24452;-29
2022/03/12 03:56:11;;;;;;;11.00;4.90;;;;;;;-4.54;50.78;100847.34;103487;1300;24227;-26
2022/03/12 03:58:37;;;;;;;12.90;4.90;;;;;;;-4.55;50.93;100848.23;103556;1300;24261;-27
2022/03/12 04:01:06;;;;;;;24.60;6.00;;;;;;;-4.61;51.22;100847.45;103518;1300;24301;-29
2022/03/12 04:03:33;;;;;;;11.60;4.80;;;;;;;-4.63;51.09;100848.09;103562;1301;23067;-27
2022/03/12 04:06:01;;;;;;;10.80;5.30;;;;;;;-4.68;51.10;100851.22;103634;1300;24221;-27
2022/03/12 04:08:28;;;;;;;14.30;6.50;;;;;;;-4.71;51.93;100851.01;103584;1300;24368;-26
2022/03/12 04:10:53;;;;;;;10.50;4.70;;;;;;;-4.75;52.03;100848.02;103460;1300;24192;-29
2022/03/12 04:13:20;;;;;;;24.20;7.00;;;;;;;-4.79;52.04;100848.39;103383;1302;260809;-29
2022/03/12 04:15:47;;;;;;;24.90;5.40;;;;;;;-4.84;51.97;100851.19;103441;1300;24285;-30
2022/03/12 04:18:15;;;;;;;14.50;5.90;;;;;;;-4.86;51.94;100856.36;103550;1300;24288;-26
2022/03/12 04:20:47;;;;;;;18.50;4.80;;;;;;;-4.86;52.46;100854.62;103575;1300;24261;-26
2022/03/12 04:23:18;;;;;;;12.90;4.70;;;;;;;-4.88;52.25;100853.63;103572;1300;24241;-27
2022/03/12 04:25:46;;;;;;;10.60;4.80;;;;;;;-4.94;52.77;100853.16;103606;1300;24250;-27
2022/03/12 04:28:12;;;;;;;17.00;5.50;;;;;;;-4.95;52.55;100848.70;103592;1300;24343;-30
2022/03/12 04:30:38;;;;;;;13.10;4.70;;;;;;;-4.96;52.10;100851.70;103553;1300;22696;-29
2022/03/12 04:33:05;;;;;;;25.40;7.90;;;;;;;-4.97;52.45;100850.66;103521;1300;24282;-30
2022/03/12 04:35:32;;;;;;;19.20;6.60;;;;;;;-4.97;52.60;100853.45;103600;1300;24199;-27
2022/03/12 04:37:57;;;;;;;23.10;7.20;;;;;;;-4.97;52.19;100852.61;103533;1300;22509;-25
2022/03/12 04:40:25;;;;;;;12.60;5.10;;;;;;;-4.98;52.47;100850.37;103612;1300;24456;-25
2022/03/12 04:42:51;;;;;;;17.30;5.50;;;;;;;-4.99;52.55;100846.39;103546;1300;24300;-27
2022/03/12 04:45:19;;;;;;;20.40;7.30;;;;;;;-5.00;52.75;100846.79;103592;1300;24377;-29
2022/03/12 04:47:47;;;;;;;14.90;6.40;;;;;;;-5.03;52.81;100842.18;103574;1300;24199;-29
2022/03/12 04:50:13;;;;;;;15.40;5.80;;;;;;;-5.03;52.64;100842.02;103454;1300;24259;-25
2022/03/12 04:52:42;;;;;;;25.10;6.30;;;;;;;-5.04;52.60;100837.17;103595;1300;24379;-29
2022/03/12 04:55:10;;;;;;;14.80;6.30;;;;;;;-5.06;53.20;100842.14;103601;1300;24202;-28
2022/03/12 04:57:36;;;;;;;16.10;5.90;;;;;;;-5.09;53.46;100841.41;103621;1300;24237;-25
2022/03/12 05:00:04;;;;;;;23.60;7.40;;;;;;;-5.13;53.51;100837.36;103630;1300;24246;-26
2022/03/12 05:02:29;;;;;;;27.40;6.90;;;;;;;-5.13;52.86;100832.48;103600;1300;24345;-29
2022/03/12 05:04:55;;;;;;;20.80;6.00;;;;;;;-5.15;52.93;100836.92;103527;1300;24275;-28
2022/03/12 05:07:23;;;;;;;20.50;6.80;;;;;;;-5.13;52.76;100833.55;103538;1300;24314;-25
2022/03/12 05:09:49;;;;;;;16.00;7.10;;;;;;;-5.15;52.85;100829.06;103603;1300;24279;-29
2022/03/12 05:12:15;;;;;;;11.80;4.80;;;;;;;-5.12;52.97;100827.41;103544;1300;24338;-25
2022/03/12 05:14:50;;;;;;;15.10;6.10;;;;;;;-5.11;53.16;100827.67;103590;1300;24224;-25
2022/03/12 05:17:18;;;;;;;20.70;5.80;;;;;;;-5.08;53.32;100824.95;103535;1300;24324;-27
2022/03/12 05:19:44;;;;;;;22.20;5.70;;;;;;;-5.06;52.97;100825.00;103514;1300;22801;-30
2022/03/12 05:22:10;;;;;;;17.20;7.70;;;;;;;-5.02;52.86;100821.34;103522;1300;24233;-25
2022/03/12 05:24:36;;;;;;;19.50;7.60;;;;;;;-4.97;53.00;100821.17;103540;1300;24266;-25
2022/03/12 05:27:04;;;;;;;14.60;6.50;;;;;;;-4.96;52.30;100820.41;103549;1300;22782;-30
2022/03/12 05:29:31;;;;;;;20.60;5.20;;;;;;;-4.90;52.51;100817.55;103539;1302;25203;-25
2022/03/12 05:31:56;;;;;;;10.10;5.00;;;;;;;-4.85;52.14;100816.29;103585;1300;24315;-25
2022/03/12 05:34:23;;;;;;;9.80;4.40;;;;;;;-4.75;51.94;100814.84;103588;1300;24192;-28
2022/03/12 05:36:49;;;;;;;10.00;4.80;;;;;;;-4.74;52.27;100813.55;103548;1300;22513;-25
2022/03/12 05:39:15;;;;;;;12.60;6.00;;;;;;;-4.72;52.18;100814.90;103577;1301;24263;-29
2022/03/12 05:41:44;;;;;;;16.90;5.20;;;;;;;-4.69;52.03;100811.95;103579;1300;24256;-29
2022/03/12 05:44:13;;;;;;;14.90;5.90;;;;;;;-4.65;51.80;100813.17;103637;1300;25325;-25
2022/03/12 05:46:39;;;;;;;13.60;7.00;;;;;;;-4.58;51.48;100813.92;103560;1300;24220;-28
2022/03/12 05:49:06;;;;;;;14.00;6.60;;;;;;;-4.50;51.30;100812.72;103501;1300;24441;-26
2022/03/12 05:51:32;;;;;;;11.60;6.40;;;;;;;-4.41;51.58;100811.99;103687;1297;24239;-26
2022/03/12 05:53:58;;;;;;;12.40;5.70;;;;;;;-4.36;51.84;100815.27;103561;1300;24996;-26
2022/03/12 05:56:24;;;;;;;13.00;9.00;;;;;;;-4.31;51.06;100821.67;103634;1302;24323;-26
2022/03/12 05:58:50;;;;;;;16.40;6.30;;;;;;;-4.22;50.83;100814.48;103728;1300;24176;-29
2022/03/12 06:01:15;;;;;;;19.40;6.20;;;;;;;-4.19;50.78;100811.21;103605;1300;24248;-29
2022/03/12 06:03:41;;;;;;;14.80;5.70;;;;;;;-4.13;50.66;100813.56;103809;1299;24247;-28
2022/03/12 06:06:08;;;;;;;15.10;5.70;;;;;;;-4.08;50.14;100810.02;103732;1299;24182;-25
2022/03/12 06:08:34;;;;;;;20.20;7.90;;;;;;;-4.02;50.61;100810.45;103714;1299;24288;-29
2022/03/12 06:11:01;;;;;;;11.90;6.40;;;;;;;-4.01;50.42;100803.02;103582;1300;24246;-30
2022/03/12 06:13:28;;;;;;;12.70;6.00;;;;;;;-3.90;50.17;100799.02;103612;1302;24230;-30
2022/03/12 06:15:58;;;;;;;16.30;5.80;;;;;;;-3.75;50.00;100804.83;103656;1299;24297;-29
2022/03/12 06:18:27;;;;;;;19.00;8.10;;;;;;;-3.59;50.16;100808.81;103625;1301;24202;-26
2022/03/12 06:20:53;;;;;;;17.90;6.10;;;;;;;-3.38;49.41;100808.68;103664;1299;24269;-25
2022/03/12 06:23:19;;;;;;;10.10;5.70;;;;;;;-3.23;49.51;100812.70;103500;1301;24380;-29
2022/03/12 06:25:45;;;;;;;14.70;6.20;;;;;;;-3.12;49.01;100811.67;103546;1302;24380;-27
2022/03/12 06:28:11;;;;;;;20.80;7.00;;;;;;;-2.97;48.24;100809.52;103744;1298;24183;-25
2022/03/12 06:30:41;;;;;;;20.00;7.10;;;;;;;-2.90;48.64;100804.45;103686;1299;24201;-29
2022/03/12 06:33:07;;;;;;;16.20;7.70;;;;;;;-2.79;48.24;100806.34;103529;1301;24373;-26
2022/03/12 06:35:34;;;;;;;25.70;9.90;;;;;;;-2.74;47.93;100803.11;103677;1299;25024;-28
2022/03/12 06:38:00;;;;;;;25.80;9.00;;;;;;;-2.71;47.26;100803.48;103642;1300;24177;-26
2022/03/12 06:40:28;;;;;;;30.50;9.60;;;;;;;-2.71;47.20;100802.08;103592;1302;24308;-29
2022/03/12 06:42:56;;;;;;;26.50;7.70;;;;;;;-2.64;47.31;100806.98;103694;1299;24324;-29
2022/03/12 06:45:24;;;;;;;28.00;9.70;;;;;;;-2.57;47.00;100806.64;103701;1299;22784;-29
2022/03/12 06:47:50;;;;;;;45.30;10.30;;;;;;;-2.50;46.89;100806.27;103608;1303;22499;-29
2022/03/12 06:50:18;;;;;;;23.60;9.10;;;;;;;-2.42;46.91;100805.17;103703;1299;24345;-26
2022/03/12 06:52:47;;;;;;;22.30;8.20;;;;;;;-2.33;46.50;100799.27;103599;1300;24345;-26
2022/03/12 06:55:15;;;;;;;58.10;17.20;;;;;;;-2.20;46.68;100800.52;103652;1302;22496;-29
2022/03/12 06:57:40;;;;;;;59.10;17.50;;;;;;;-2.12;46.00;100798.29;103372;1300;24280;-29
2022/03/12 07:00:11;;;;;;;45.20;16.10;;;;;;;-2.01;45.79;100799.15;103649;1300;24218;-29
2022/03/12 07:02:37;;;;;;;22.90;8.80;;;;;;;-1.90;45.05;100800.63;103636;1299;24329;-26
2022/03/12 07:05:03;;;;;;;29.10;7.00;;;;;;;-1.82;44.62;100797.80;103525;1302;24220;-30
2022/03/12 07:07:29;;;;;;;14.90;6.70;;;;;;;-1.69;44.55;100793.23;103578;1300;24209;-28
2022/03/12 07:09:54;;;;;;;36.40;11.60;;;;;;;-1.59;44.83;100793.33;103581;1300;22965;-28
2022/03/12 07:12:20;;;;;;;36.30;12.20;;;;;;;-1.36;44.14;100793.16;103678;1300;24295;-25
2022/03/12 07:14:46;;;;;;;21.30;7.60;;;;;;;-1.14;44.02;100788.14;103601;1300;24259;-28
2022/03/12 07:17:12;;;;;;;15.60;7.50;;;;;;;-0.82;43.16;100790.19;103667;1300;24230;-25
2022/03/12 07:19:38;;;;;;;12.20;5.90;;;;;;;-0.49;42.95;100791.40;103467;1300;24300;-28
2022/03/12 07:22:05;;;;;;;13.00;5.60;;;;;;;-0.17;41.78;100795.32;103576;1302;24272;-25
2022/03/12 07:24:31;;;;;;;10.90;4.70;;;;;;;0.07;41.64;100800.14;103604;1301;22507;-27
2022/03/12 07:26:57;;;;;;;12.10;5.70;;;;;;;0.40;40.64;100799.14;103636;1300;24199;-28
2022/03/12 07:29:22;;;;;;;12.00;6.40;;;;;;;0.64;40.02;100799.04;103566;1300;24221;-24
2022/03/12 07:31:48;;;;;;;10.60;5.80;;;;;;;0.83;39.63;100800.11;103639;1299;24371;-25
2022/03/12 07:34:15;;;;;;;13.10;5.70;;;;;;;1.08;39.07;100799.00;103509;1303;24293;-25
2022/03/12 07:36:41;;;;;;;8.90;4.80;;;;;;;1.29;38.46;100802.91;103550;1302;22714;-24
2022/03/12 07:39:07;;;;;;;16.90;6.30;;;;;;;1.45;36.65;100799.86;103497;1302;24368;-30
2022/03/12 07:41:33;;;;;;;14.70;5.50;;;;;;;1.51;36.31;100800.88;103739;1300;24295;-26
2022/03/12 07:43:59;;;;;;;11.60;5.20;;;;;;;1.59;36.56;100801.06;103527;1303;24320;-24
2022/03/12 07:46:25;;;;;;;10.10;4.40;;;;;;;1.91;36.52;100798.52;103542;1302;24243;-28
2022/03/12 07:48:51;;;;;;;14.40;5.60;;;;;;;2.16;36.68;100799.38;103597;1300;24368;-30
2022/03/12 07:51:16;;;;;;;16.40;6.20;;;;;;;2.40;36.59;100796.47;103541;1303;24214;-28
2022/03/12 07:53:42;;;;;;;21.40;8.30;;;;;;;2.55;34.85;100795.73;103564;1302;24227;-27
2022/03/12 07:56:08;;;;;;;13.80;6.20;;;;;;;2.68;35.38;100801.84;103608;1302;24308;-28
2022/03/12 07:58:35;;;;;;;18.10;8.70;;;;;;;3.01;35.52;100798.00;103562;1301;24215;-24
2022/03/12 08:01:03;;;;;;;17.20;6.70;;;;;;;3.23;35.02;100799.92;103546;1300;24295;-28
2022/03/12 08:03:29;;;;;;;12.70;6.30;;;;;;;3.40;33.87;100792.75;103591;1300;23985;-30
2022/03/12 08:05:55;;;;;;;10.90;6.30;;;;;;;3.54;33.83;100795.81;103519;1302;22808;-26
2022/03/12 08:08:21;;;;;;;21.70;8.30;;;;;;;3.66;33.76;100795.41;103572;1303;24214;-24
2022/03/12 08:13:20;;;;;;;24.80;9.20;;;;;;;3.91;33.51;100795.23;103656;1302;22874;-27
2022/03/12 08:15:45;;;;;;;14.60;6.60;;;;;;;4.10;32.89;100793.19;103504;1303;24395;-27
2022/03/12 08:18:11;;;;;;;28.90;11.40;;;;;;;4.22;32.34;100791.23;103521;1300;22516;-24
2022/03/12 08:20:37;;;;;;;15.30;6.80;;;;;;;4.32;32.50;100789.51;103590;1301;22745;-30
2022/03/12 08:23:04;;;;;;;14.50;7.10;;;;;;;4.61;32.18;100791.42;103546;1302;24354;-30
2022/03/12 08:25:29;;;;;;;31.20;10.10;;;;;;;4.68;31.97;100792.83;103537;1303;24249;-28
2022/03/12 08:27:55;;;;;;;16.50;7.10;;;;;;;4.91;31.44;100793.84;103518;1303;22874;-28
2022/03/12 08:30:21;;;;;;;16.60;7.90;;;;;;;4.93;31.42;100797.73;103559;1303;24358;-28
2022/03/12 08:32:47;;;;;;;14.50;6.80;;;;;;;5.16;31.10;100793.73;103544;1300;24209;-24
2022/03/12 08:35:13;;;;;;;18.10;7.30;;;;;;;5.43;31.17;100793.25;103566;1300;24316;-27
2022/03/12 08:37:39;;;;;;;29.10;9.20;;;;;;;5.51;30.34;100782.45;103550;1302;25015;-24
2022/03/12 08:40:06;;;;;;;14.20;6.20;;;;;;;5.66;29.67;100778.17;103521;1303;24257;-24
2022/03/12 08:42:32;;;;;;;8.20;4.80;;;;;;;5.82;29.83;100772.29;103564;1302;25375;-28
2022/03/12 08:44:58;;;;;;;11.80;6.40;;;;;;;6.23;30.95;100769.15;103592;1302;24317;-27
2022/03/12 08:47:24;;;;;;;25.40;6.40;;;;;;;6.49;30.49;100768.36;103476;1300;24226;-24
2022/03/12 08:49:50;;;;;;;19.10;7.60;;;;;;;6.63;29.55;100763.08;103592;1301;24381;-25
2022/03/12 08:52:15;;;;;;;12.80;6.30;;;;;;;6.87;29.97;100759.69;103508;1303;24295;-25
2022/03/12 08:54:41;;;;;;;8.80;5.50;;;;;;;7.06;28.89;100760.84;103503;1302;24249;-27
2022/03/12 08:57:07;;;;;;;7.10;5.00;;;;;;;7.23;28.95;100757.92;103496;1302;24344;-24
2022/03/12 08:59:33;;;;;;;10.20;5.80;;;;;;;7.38;28.55;100760.17;103573;1302;24259;-25
2022/03/12 09:01:59;;;;;;;19.80;9.10;;;;;;;7.34;28.06;100763.39;103538;1302;24256;-25
2022/03/12 09:04:24;;;;;;;9.60;5.70;;;;;;;7.30;27.81;100759.31;103571;1303;24297;-26
2022/03/12 09:06:50;;;;;;;17.70;8.80;;;;;;;7.47;27.59;100763.39;103540;1301;22939;-26
2022/03/12 09:09:16;;;;;;;26.60;9.30;;;;;;;7.54;27.49;100766.87;103570;1300;24321;-28
2022/03/12 09:11:42;;;;;;;9.10;5.40;;;;;;;7.69;27.40;100763.30;103576;1302;24210;-24
2022/03/12 09:14:08;;;;;;;16.60;5.70;;;;;;;7.77;26.78;100765.52;103557;1300;22616;-24
2022/03/12 09:16:36;;;;;;;10.50;6.40;;;;;;;8.19;27.56;100765.02;103550;1303;24414;-28
2022/03/12 09:19:03;;;;;;;10.70;5.00;;;;;;;8.35;27.64;100763.86;103635;1300;24457;-28
2022/03/12 09:21:28;;;;;;;11.20;5.40;;;;;;;8.60;27.34;100763.84;103554;1301;22517;-24
2022/03/12 09:23:54;;;;;;;6.60;3.90;;;;;;;8.76;26.15;100763.91;103639;1303;24334;-24
2022/03/12 09:26:21;;;;;;;8.30;4.60;;;;;;;8.54;25.56;100758.58;103557;1302;24223;-24
2022/03/12 09:28:48;;;;;;;12.40;4.30;;;;;;;8.64;24.70;100755.42;103612;1301;22502;-24
2022/03/12 09:31:14;;;;;;;7.80;3.30;;;;;;;8.43;24.62;100754.48;103566;1302;24439;-28
2022/03/12 09:33:41;;;;;;;8.40;3.50;;;;;;;8.40;24.86;100756.87;103580;1303;22719;-24
2022/03/12 09:36:09;;;;;;;6.10;4.20;;;;;;;8.40;24.28;100753.45;103594;1300;22875;-30
2022/03/12 09:38:36;;;;;;;6.50;3.80;;;;;;;8.38;22.98;100749.23;103570;1300;22507;-25
2022/03/12 09:41:02;;;;;;;6.00;3.70;;;;;;;8.17;23.48;100750.49;103558;1300;24281;-28
2022/03/12 09:43:28;;;;;;;8.20;4.30;;;;;;;8.04;23.27;100755.66;103527;1300;24352;-24
2022/03/12 09:45:53;;;;;;;4.90;3.30;;;;;;;8.29;23.12;100749.05;103564;1303;24298;-24
2022/03/12 09:48:19;;;;;;;6.10;3.70;;;;;;;8.13;23.09;100753.61;103586;1301;24238;-28
2022/03/12 09:50:45;;;;;;;6.90;3.50;;;;;;;8.01;22.62;100753.70;103554;1303;24227;-27
2022/03/12 09:53:11;;;;;;;6.10;3.50;;;;;;;7.88;23.16;100758.09;103555;1300;24327;-24
2022/03/12 09:55:38;;;;;;;6.80;4.30;;;;;;;8.11;22.94;100756.80;103594;1300;24211;-26
2022/03/12 09:58:04;;;;;;;5.70;3.80;;;;;;;8.44;23.05;100752.77;103554;1300;24365;-28
2022/03/12 10:00:30;;;;;;;8.70;3.70;;;;;;;8.54;23.49;100754.30;103528;1302;22518;-28
2022/03/12 10:02:56;;;;;;;5.50;3.90;;;;;;;8.53;23.45;100751.94;103600;1300;24210;-30
2022/03/12 10:05:21;;;;;;;5.00;3.70;;;;;;;8.86;22.37;100750.80;103609;1300;24282;-27
2022/03/12 10:07:49;;;;;;;9.80;4.40;;;;;;;8.69;21.77;100751.35;103545;1303;24317;-26
2022/03/12 10:10:17;;;;;;;8.40;4.50;;;;;;;8.40;22.49;100749.07;103522;1302;24367;-25
2022/03/12 10:12:44;;;;;;;9.10;3.20;;;;;;;8.58;22.32;100746.45;103615;1301;24302;-29
2022/03/12 10:15:11;;;;;;;10.60;4.30;;;;;;;8.61;22.32;100747.73;103597;1300;24337;-26
2022/03/12 10:17:37;;;;;;;9.70;5.30;;;;;;;8.46;24.07;100747.71;103562;1301;24251;-26
2022/03/12 10:20:05;;;;;;;8.30;5.10;;;;;;;8.88;23.43;100745.08;103536;1300;24319;-29
2022/03/12 10:22:32;;;;;;;8.20;4.90;;;;;;;9.27;23.77;100743.77;103575;1303;24438;-26
2022/03/12 10:24:58;;;;;;;34.60;6.40;;;;;;;9.77;24.07;100742.50;103562;1300;22503;-28
2022/03/12 10:27:24;;;;;;;8.50;5.00;;;;;;;10.14;23.69;100741.96;103572;1301;24251;-30
2022/03/12 10:29:49;;;;;;;5.80;3.90;;;;;;;10.44;23.18;100735.98;103517;1302;24376;-27
2022/03/12 10:32:20;;;;;;;23.90;4.90;;;;;;;10.73;22.52;100736.70;103545;1302;24275;-24
2022/03/12 10:34:52;;;;;;;6.00;3.70;;;;;;;10.61;23.12;100735.65;103555;1300;24180;-28
2022/03/12 10:37:19;;;;;;;5.10;3.50;;;;;;;11.05;22.90;100728.77;103587;1300;22746;-28
2022/03/12 10:39:45;;;;;;;8.90;4.60;;;;;;;11.14;22.10;100730.56;103601;1302;24356;-24
2022/03/12 10:42:12;;;;;;;10.80;5.70;;;;;;;11.24;21.57;100727.95;103553;1303;24211;-24
2022/03/12 10:44:39;;;;;;;11.60;5.90;;;;;;;11.15;21.56;100728.19;103522;1300;24218;-28
2022/03/12 10:47:16;;;;;;;14.70;6.90;;;;;;;11.15;21.07;100725.09;103562;1303;24210;-25
2022/03/12 10:49:57;;;;;;;19.30;6.80;;;;;;;11.02;20.98;100723.48;103554;1300;23786;-28
2022/03/12 10:52:27;;;;;;;16.60;7.00;;;;;;;10.94;21.09;100711.83;103570;1303;22515;-28
2022/03/12 10:54:52;;;;;;;13.30;6.20;;;;;;;10.59;20.59;100720.58;103601;1300;24198;-26
2022/03/12 10:57:19;;;;;;;19.20;4.50;;;;;;;10.54;20.23;100720.25;103565;1303;22511;-30
2022/03/12 10:59:45;;;;;;;5.90;4.00;;;;;;;10.55;20.66;100722.08;103535;1301;22533;-28
2022/03/12 11:02:11;;;;;;;5.30;3.10;;;;;;;10.67;21.14;100718.00;103606;1302;24226;-26
2022/03/12 11:04:39;;;;;;;5.80;3.20;;;;;;;11.08;20.89;100717.63;103451;1302;24217;-26
2022/03/12 11:07:11;;;;;;;4.40;3.20;;;;;;;11.46;20.40;100719.55;103595;1301;24214;-28
2022/03/12 11:09:38;;;;;;;10.30;3.10;;;;;;;11.52;20.04;100716.67;103600;1303;22791;-28
2022/03/12 11:12:30;;;;;;;7.70;4.10;;;;;;;11.54;19.64;100712.73;103564;1303;24250;-28